METAR AND TAF INFORMATION
METAR FOR UUDD
ADDS - METARS form results

(0147 UTC 18 November 2019)
Data provider http://aviationweather.gov/metar/data/
 
METAR text: UUDD 180130Z 22003MPS 8000 3500N BR NSC 03/01 Q1028 R14R/290042 NOSIG
Conditions at: UUDD (MOSCOW/DOMODEDOV, RU) observed 0130 UTC 18 November 2019
Temperature: 3.0°C (37°F)
Dewpoint: 1.0°C (34°F) [RH = 87%]
Pressure (altimeter): 30.35 inches Hg (1028.0 mb)
Winds: from the SW (220 degrees) at 7 MPH (6 knots; 3.1 m/s)
Visibility: 5 miles ( 8 km)
Ceiling: at least 12,000 feet AGL
Clouds: sky clear below 12,000 feet AGL
Weather: BR  (mist)

METAR text: UUDD 180100Z 22002MPS 190V250 8000 FEW043 03/02 Q1028 R14R/290042 NOSIG
Conditions at: UUDD (MOSCOW/DOMODEDOV, RU) observed 0100 UTC 18 November 2019
Temperature: 3.0°C (37°F)
Dewpoint: 2.0°C (36°F) [RH = 93%]
Pressure (altimeter): 30.35 inches Hg (1028.0 mb)
Winds: from the SW (220 degrees) at 5 MPH (4 knots; 2.1 m/s)
Visibility: 5 miles ( 8 km)
Ceiling: at least 12,000 feet AGL
Clouds: few clouds at 4300 feet AGL
Weather: no significant weather observed at this time

Forecast for: UUDD (MOSCOW/DOMODEDOV, RU)
Text: TAF UUDD 172257Z 1800/1906 21003MPS 4000 BR FEW004 BKN011 TX06/1812Z TN02/1900Z
Forecast period: 0000 UTC 18 November 2019 to 0600 UTC 19 November 2019
Forecast type: FROM: standard forecast or significant change
Winds: from the SSW (210 degrees) at 7 MPH (6 knots; 3.1 m/s)
Visibility: 2.49 miles (4.01 km)
Ceiling: 1100 feet AGL
Clouds: few clouds at 400 feet AGL
broken clouds at 1100 feet AGL
Weather: BR  (mist)
Text: PROB40
Forecast period: 0000 to 0700 UTC 18 November 2019
Forecast type: TEMPORARY: The following changes expected for less than half the time period
Visibility: 0.19 miles (0.31 km)
Ceiling: 200 feet AGL
Clouds: broken clouds at 200 feet AGL
Weather: FG  (fog)
Text: TEMPO 1800/1807 0300 FG BKN002
Forecast period: 1600 UTC 18 November 2019 to 0300 UTC 19 November 2019
Forecast type: TEMPORARY: The following changes expected for less than half the time period
Visibility: 0.19 miles (0.31 km)
Ceiling: at least 12,000 feet AGL
Clouds: scattered clouds at 200 feet AGL
Weather: FG  (fog)

 AIRPORT MAP

 RUNWAY INFORMATION

 AIRPORT FREQUENCIES
Type APP Name APP Frequency 120.6 MHZ
Type ATIS Name ATIS Frequency 128.3 MHZ
Type CLD Name DELIVERY Frequency 123.75 MHZ
Type GND Name TAXIING Frequency 119 MHZ
Type MISC Name TRANSIT Frequency 129.15 MHZ
Type PMSV Name VOLMET Frequency 127.875 MHZ
Type RDR Name KRUG Frequency 127.7 MHZ
Type RMP Name APRON Frequency 130.6 MHZ
Type TWR Name TWR Frequency 118.6 MHZ

 AIRPORT NEAR NAVIGATION AIDS
Type NDB Name Domodedovo Frequency 437 KHZ
Type NDB Name Domodedovo Frequency 659 KHZ
Type NDB Name Domodedovo Frequency 659 KHZ
Type NDB Name Domodedovo Frequency 437 KHZ
Type NDB Name Domodedovo Frequency 887 KHZ
Type NDB Name Domodedovo Frequency 320 KHZ
Type NDB Name Domodedovo Frequency 320 KHZ
Type NDB Name Domodedovo Frequency 887 KHZ



2018 Air Astana Virtual Airline